sensor_id;sensor_type;location;lat;lon;timestamp;pressure;altitude;pressure_sealevel;temperature;humidity
24422;BME280;12600;53.326;-6.298;2022-12-29T00:00:00;98280.47;;;8.43;85.41
24422;BME280;12600;53.326;-6.298;2022-12-29T00:02:59;98276.09;;;8.38;85.61
24422;BME280;12600;53.326;-6.298;2022-12-29T00:05:54;98279.50;;;8.51;85.32
24422;BME280;12600;53.326;-6.298;2022-12-29T00:08:44;98295.97;;;8.58;85.22
24422;BME280;12600;53.326;-6.298;2022-12-29T00:11:33;98295.38;;;8.49;85.64
24422;BME280;12600;53.326;-6.298;2022-12-29T00:14:24;98300.63;;;8.57;85.42
24422;BME280;12600;53.326;-6.298;2022-12-29T00:17:31;98312.25;;;8.54;85.70
24422;BME280;12600;53.326;-6.298;2022-12-29T00:20:20;98321.56;;;8.37;86.51
24422;BME280;12600;53.326;-6.298;2022-12-29T00:23:26;98328.03;;;8.49;86.20
24422;BME280;12600;53.326;-6.298;2022-12-29T00:26:33;98344.81;;;8.51;86.18
24422;BME280;12600;53.326;-6.298;2022-12-29T00:29:41;98349.19;;;8.39;86.84
24422;BME280;12600;53.326;-6.298;2022-12-29T00:32:48;98337.16;;;8.40;86.75
24422;BME280;12600;53.326;-6.298;2022-12-29T00:35:59;98349.81;;;8.49;86.76
24422;BME280;12600;53.326;-6.298;2022-12-29T00:38:53;98350.69;;;8.37;86.67
24422;BME280;12600;53.326;-6.298;2022-12-29T00:42:03;98358.84;;;8.53;86.57
24422;BME280;12600;53.326;-6.298;2022-12-29T00:45:25;98361.28;;;8.42;86.60
24422;BME280;12600;53.326;-6.298;2022-12-29T00:48:15;98357.91;;;8.45;86.43
24422;BME280;12600;53.326;-6.298;2022-12-29T00:51:24;98361.16;;;8.51;86.00
24422;BME280;12600;53.326;-6.298;2022-12-29T00:54:13;98355.06;;;8.41;85.93
24422;BME280;12600;53.326;-6.298;2022-12-29T00:57:07;98358.50;;;8.38;85.84
24422;BME280;12600;53.326;-6.298;2022-12-29T00:59:58;98367.19;;;8.44;85.76
24422;BME280;12600;53.326;-6.298;2022-12-29T01:02:50;98361.28;;;8.42;85.91
24422;BME280;12600;53.326;-6.298;2022-12-29T01:05:39;98377.28;;;8.44;85.75
24422;BME280;12600;53.326;-6.298;2022-12-29T01:08:28;98368.00;;;8.45;85.42
24422;BME280;12600;53.326;-6.298;2022-12-29T01:11:18;98375.63;;;8.39;85.38
24422;BME280;12600;53.326;-6.298;2022-12-29T01:14:07;98390.44;;;8.41;85.35
24422;BME280;12600;53.326;-6.298;2022-12-29T01:16:57;98385.78;;;8.42;85.16
24422;BME280;12600;53.326;-6.298;2022-12-29T01:19:48;98392.13;;;8.46;85.08
24422;BME280;12600;53.326;-6.298;2022-12-29T01:22:37;98385.91;;;8.46;85.14
24422;BME280;12600;53.326;-6.298;2022-12-29T01:25:27;98391.94;;;8.39;85.17
24422;BME280;12600;53.326;-6.298;2022-12-29T01:28:16;98397.75;;;8.37;84.73
24422;BME280;12600;53.326;-6.298;2022-12-29T01:31:14;98382.63;;;8.40;85.04
24422;BME280;12600;53.326;-6.298;2022-12-29T01:34:05;98382.41;;;8.33;85.08
24422;BME280;12600;53.326;-6.298;2022-12-29T01:36:56;98411.13;;;8.30;84.90
24422;BME280;12600;53.326;-6.298;2022-12-29T01:39:45;98405.69;;;8.30;84.86
24422;BME280;12600;53.326;-6.298;2022-12-29T01:42:35;98403.84;;;8.34;84.97
24422;BME280;12600;53.326;-6.298;2022-12-29T01:45:24;98409.09;;;8.27;85.21
24422;BME280;12600;53.326;-6.298;2022-12-29T01:48:14;98403.47;;;8.20;85.19
24422;BME280;12600;53.326;-6.298;2022-12-29T01:51:05;98424.72;;;8.30;84.83
24422;BME280;12600;53.326;-6.298;2022-12-29T01:53:59;98410.56;;;8.25;84.82
24422;BME280;12600;53.326;-6.298;2022-12-29T01:56:52;98408.03;;;8.32;84.98
24422;BME280;12600;53.326;-6.298;2022-12-29T01:59:48;98417.78;;;8.33;84.72
24422;BME280;12600;53.326;-6.298;2022-12-29T02:02:41;98427.53;;;8.18;85.00
24422;BME280;12600;53.326;-6.298;2022-12-29T02:05:36;98437.47;;;8.26;84.67
24422;BME280;12600;53.326;-6.298;2022-12-29T02:08:29;98454.97;;;8.13;85.42
24422;BME280;12600;53.326;-6.298;2022-12-29T02:14:13;98445.06;;;8.21;84.92
24422;BME280;12600;53.326;-6.298;2022-12-29T02:17:10;98441.75;;;8.27;84.77
24422;BME280;12600;53.326;-6.298;2022-12-29T02:27:48;98471.56;;;8.24;84.38
24422;BME280;12600;53.326;-6.298;2022-12-29T02:30:45;98448.47;;;8.18;84.69
24422;BME280;12600;53.326;-6.298;2022-12-29T02:33:56;98459.69;;;8.16;84.48
24422;BME280;12600;53.326;-6.298;2022-12-29T02:36:59;98462.06;;;8.18;84.17
24422;BME280;12600;53.326;-6.298;2022-12-29T02:40:00;98469.63;;;8.36;83.39
24422;BME280;12600;53.326;-6.298;2022-12-29T02:43:01;98474.84;;;8.29;83.19
24422;BME280;12600;53.326;-6.298;2022-12-29T02:45:58;98453.84;;;8.30;82.90
24422;BME280;12600;53.326;-6.298;2022-12-29T02:48:55;98473.00;;;8.33;83.28
24422;BME280;12600;53.326;-6.298;2022-12-29T02:51:52;98499.09;;;8.34;82.87
24422;BME280;12600;53.326;-6.298;2022-12-29T02:54:45;98493.88;;;8.29;82.70
24422;BME280;12600;53.326;-6.298;2022-12-29T02:57:37;98512.69;;;8.34;82.77
24422;BME280;12600;53.326;-6.298;2022-12-29T03:00:26;98503.59;;;8.43;82.68
24422;BME280;12600;53.326;-6.298;2022-12-29T03:03:25;98499.41;;;8.33;81.98
24422;BME280;12600;53.326;-6.298;2022-12-29T03:06:33;98505.63;;;8.46;82.18
24422;BME280;12600;53.326;-6.298;2022-12-29T03:09:37;98508.50;;;8.25;82.05
24422;BME280;12600;53.326;-6.298;2022-12-29T03:12:34;98509.97;;;8.34;81.68
24422;BME280;12600;53.326;-6.298;2022-12-29T03:15:48;98509.75;;;8.27;81.60
24422;BME280;12600;53.326;-6.298;2022-12-29T03:18:59;98520.63;;;8.39;81.46
24422;BME280;12600;53.326;-6.298;2022-12-29T03:21:56;98536.34;;;8.34;81.23
24422;BME280;12600;53.326;-6.298;2022-12-29T03:25:17;98521.66;;;8.35;81.29
24422;BME280;12600;53.326;-6.298;2022-12-29T03:28:11;98548.38;;;8.45;81.02
24422;BME280;12600;53.326;-6.298;2022-12-29T03:31:05;98542.28;;;8.36;80.79
24422;BME280;12600;53.326;-6.298;2022-12-29T03:34:01;98561.53;;;8.43;81.42
24422;BME280;12600;53.326;-6.298;2022-12-29T03:36:59;98583.66;;;8.29;81.61
24422;BME280;12600;53.326;-6.298;2022-12-29T03:39:49;98589.34;;;8.36;81.39
24422;BME280;12600;53.326;-6.298;2022-12-29T03:42:40;98593.84;;;8.32;81.58
24422;BME280;12600;53.326;-6.298;2022-12-29T03:45:30;98603.97;;;8.20;82.33
24422;BME280;12600;53.326;-6.298;2022-12-29T03:48:19;98604.28;;;8.30;82.55
24422;BME280;12600;53.326;-6.298;2022-12-29T03:51:12;98600.41;;;8.31;82.31
24422;BME280;12600;53.326;-6.298;2022-12-29T03:54:02;98622.88;;;8.28;82.41
24422;BME280;12600;53.326;-6.298;2022-12-29T03:56:52;98610.56;;;8.19;82.90
24422;BME280;12600;53.326;-6.298;2022-12-29T03:59:53;98627.19;;;8.29;82.47
24422;BME280;12600;53.326;-6.298;2022-12-29T04:02:43;98632.41;;;8.22;83.09
24422;BME280;12600;53.326;-6.298;2022-12-29T04:05:38;98627.41;;;8.24;83.45
24422;BME280;12600;53.326;-6.298;2022-12-29T04:08:29;98643.50;;;8.29;83.06
24422;BME280;12600;53.326;-6.298;2022-12-29T04:11:19;98652.13;;;8.31;82.90
24422;BME280;12600;53.326;-6.298;2022-12-29T04:14:09;98642.28;;;8.39;82.74
24422;BME280;12600;53.326;-6.298;2022-12-29T04:16:58;98658.69;;;8.30;82.51
24422;BME280;12600;53.326;-6.298;2022-12-29T04:19:49;98638.41;;;8.28;82.02
24422;BME280;12600;53.326;-6.298;2022-12-29T04:22:38;98649.88;;;8.21;82.07
24422;BME280;12600;53.326;-6.298;2022-12-29T04:25:30;98660.84;;;8.25;82.11
24422;BME280;12600;53.326;-6.298;2022-12-29T04:28:20;98653.03;;;8.23;81.64
24422;BME280;12600;53.326;-6.298;2022-12-29T04:31:42;98679.22;;;8.28;81.43
24422;BME280;12600;53.326;-6.298;2022-12-29T04:34:32;98681.16;;;8.27;81.37
24422;BME280;12600;53.326;-6.298;2022-12-29T04:37:21;98681.25;;;8.31;80.99
24422;BME280;12600;53.326;-6.298;2022-12-29T04:40:11;98695.91;;;8.26;81.05
24422;BME280;12600;53.326;-6.298;2022-12-29T04:43:03;98703.03;;;8.31;80.79
24422;BME280;12600;53.326;-6.298;2022-12-29T04:45:57;98701.09;;;8.31;80.91
24422;BME280;12600;53.326;-6.298;2022-12-29T04:48:52;98692.03;;;8.27;80.86
24422;BME280;12600;53.326;-6.298;2022-12-29T04:52:01;98694.63;;;8.24;80.28
24422;BME280;12600;53.326;-6.298;2022-12-29T04:54:50;98700.19;;;8.27;80.16
24422;BME280;12600;53.326;-6.298;2022-12-29T04:57:41;98712.13;;;8.35;79.48
24422;BME280;12600;53.326;-6.298;2022-12-29T05:00:35;98717.56;;;8.35;79.35
24422;BME280;12600;53.326;-6.298;2022-12-29T05:03:25;98721.53;;;8.37;78.93
24422;BME280;12600;53.326;-6.298;2022-12-29T05:06:15;98700.91;;;8.36;78.43
24422;BME280;12600;53.326;-6.298;2022-12-29T05:09:06;98716.97;;;8.17;78.08
24422;BME280;12600;53.326;-6.298;2022-12-29T05:11:56;98728.06;;;8.24;77.81
24422;BME280;12600;53.326;-6.298;2022-12-29T05:14:45;98701.00;;;8.28;77.65
24422;BME280;12600;53.326;-6.298;2022-12-29T05:17:36;98732.16;;;8.30;77.47
24422;BME280;12600;53.326;-6.298;2022-12-29T05:20:27;98722.19;;;8.34;76.48
24422;BME280;12600;53.326;-6.298;2022-12-29T05:23:17;98723.75;;;8.23;76.17
24422;BME280;12600;53.326;-6.298;2022-12-29T05:26:13;98724.00;;;8.18;76.45
24422;BME280;12600;53.326;-6.298;2022-12-29T05:29:16;98728.88;;;8.12;76.60
24422;BME280;12600;53.326;-6.298;2022-12-29T05:32:05;98725.13;;;8.05;76.56
24422;BME280;12600;53.326;-6.298;2022-12-29T05:34:57;98729.78;;;8.04;76.90
24422;BME280;12600;53.326;-6.298;2022-12-29T05:37:46;98710.06;;;7.95;76.61
24422;BME280;12600;53.326;-6.298;2022-12-29T05:40:35;98723.19;;;7.93;76.24
24422;BME280;12600;53.326;-6.298;2022-12-29T05:43:33;98739.84;;;7.92;75.66
24422;BME280;12600;53.326;-6.298;2022-12-29T05:46:49;98744.81;;;7.90;75.71
24422;BME280;12600;53.326;-6.298;2022-12-29T05:49:53;98748.09;;;7.83;74.42
24422;BME280;12600;53.326;-6.298;2022-12-29T05:53:02;98743.91;;;7.85;75.18
24422;BME280;12600;53.326;-6.298;2022-12-29T05:55:52;98756.16;;;7.92;76.52
24422;BME280;12600;53.326;-6.298;2022-12-29T05:58:41;98756.03;;;7.88;76.89
24422;BME280;12600;53.326;-6.298;2022-12-29T06:01:31;98783.72;;;7.69;77.42
24422;BME280;12600;53.326;-6.298;2022-12-29T06:04:22;98753.03;;;7.69;77.12
24422;BME280;12600;53.326;-6.298;2022-12-29T06:07:12;98776.63;;;7.77;77.13
24422;BME280;12600;53.326;-6.298;2022-12-29T06:10:07;98750.66;;;7.67;77.22
24422;BME280;12600;53.326;-6.298;2022-12-29T06:13:07;98757.25;;;7.66;77.58
24422;BME280;12600;53.326;-6.298;2022-12-29T06:16:00;98765.63;;;7.73;77.19
24422;BME280;12600;53.326;-6.298;2022-12-29T06:18:50;98755.75;;;7.69;77.06
24422;BME280;12600;53.326;-6.298;2022-12-29T06:21:39;98766.09;;;7.75;76.26
24422;BME280;12600;53.326;-6.298;2022-12-29T06:24:30;98746.63;;;7.73;75.70
24422;BME280;12600;53.326;-6.298;2022-12-29T06:27:20;98733.13;;;7.65;75.96
24422;BME280;12600;53.326;-6.298;2022-12-29T06:30:12;98781.00;;;7.69;75.97
24422;BME280;12600;53.326;-6.298;2022-12-29T06:33:03;98777.09;;;7.79;75.93
24422;BME280;12600;53.326;-6.298;2022-12-29T06:35:53;98772.47;;;7.79;76.19
24422;BME280;12600;53.326;-6.298;2022-12-29T06:38:42;98762.91;;;7.73;75.62
24422;BME280;12600;53.326;-6.298;2022-12-29T06:41:32;98774.50;;;7.82;75.59
24422;BME280;12600;53.326;-6.298;2022-12-29T06:44:58;98777.22;;;7.82;75.80
24422;BME280;12600;53.326;-6.298;2022-12-29T06:47:48;98771.66;;;7.79;75.92
24422;BME280;12600;53.326;-6.298;2022-12-29T06:50:37;98786.44;;;7.69;76.11
24422;BME280;12600;53.326;-6.298;2022-12-29T06:53:27;98778.31;;;7.69;75.80
24422;BME280;12600;53.326;-6.298;2022-12-29T06:56:16;98780.81;;;7.74;75.76
24422;BME280;12600;53.326;-6.298;2022-12-29T06:59:05;98798.38;;;7.77;75.40
24422;BME280;12600;53.326;-6.298;2022-12-29T07:01:56;98793.41;;;7.79;75.22
24422;BME280;12600;53.326;-6.298;2022-12-29T07:04:46;98782.66;;;7.82;75.15
24422;BME280;12600;53.326;-6.298;2022-12-29T07:07:35;98805.53;;;7.81;74.30
24422;BME280;12600;53.326;-6.298;2022-12-29T07:10:24;98811.84;;;7.73;74.68
24422;BME280;12600;53.326;-6.298;2022-12-29T07:13:14;98804.69;;;7.69;74.75
24422;BME280;12600;53.326;-6.298;2022-12-29T07:16:08;98798.47;;;7.68;74.54
24422;BME280;12600;53.326;-6.298;2022-12-29T07:18:59;98815.16;;;7.79;74.89
24422;BME280;12600;53.326;-6.298;2022-12-29T07:21:48;98811.59;;;7.66;74.97
24422;BME280;12600;53.326;-6.298;2022-12-29T07:24:37;98817.28;;;7.73;74.18
24422;BME280;12600;53.326;-6.298;2022-12-29T07:27:27;98837.22;;;7.77;74.22
24422;BME280;12600;53.326;-6.298;2022-12-29T07:30:16;98837.53;;;7.64;74.79
24422;BME280;12600;53.326;-6.298;2022-12-29T07:33:05;98796.75;;;7.64;75.31
24422;BME280;12600;53.326;-6.298;2022-12-29T07:35:56;98828.59;;;7.63;75.76
24422;BME280;12600;53.326;-6.298;2022-12-29T07:38:46;98817.38;;;7.65;76.25
24422;BME280;12600;53.326;-6.298;2022-12-29T07:41:35;98818.59;;;7.55;76.97
24422;BME280;12600;53.326;-6.298;2022-12-29T07:44:24;98822.63;;;7.49;76.29
24422;BME280;12600;53.326;-6.298;2022-12-29T07:47:34;98832.19;;;7.55;76.07
24422;BME280;12600;53.326;-6.298;2022-12-29T07:50:24;98827.31;;;7.61;75.76
24422;BME280;12600;53.326;-6.298;2022-12-29T07:53:14;98838.44;;;7.68;75.49
24422;BME280;12600;53.326;-6.298;2022-12-29T07:56:05;98831.13;;;7.80;75.20
24422;BME280;12600;53.326;-6.298;2022-12-29T07:58:54;98836.56;;;7.80;75.57
24422;BME280;12600;53.326;-6.298;2022-12-29T08:01:44;98843.63;;;7.61;75.30
24422;BME280;12600;53.326;-6.298;2022-12-29T08:04:33;98845.09;;;7.58;75.44
24422;BME280;12600;53.326;-6.298;2022-12-29T08:07:23;98837.09;;;7.74;74.60
24422;BME280;12600;53.326;-6.298;2022-12-29T08:10:15;98840.38;;;7.67;74.53
24422;BME280;12600;53.326;-6.298;2022-12-29T08:13:04;98831.50;;;7.58;74.91
24422;BME280;12600;53.326;-6.298;2022-12-29T08:15:53;98845.28;;;7.53;74.88
24422;BME280;12600;53.326;-6.298;2022-12-29T08:18:43;98853.44;;;7.53;75.01
24422;BME280;12600;53.326;-6.298;2022-12-29T08:21:32;98848.94;;;7.57;74.92
24422;BME280;12600;53.326;-6.298;2022-12-29T08:24:21;98867.75;;;7.62;74.73
24422;BME280;12600;53.326;-6.298;2022-12-29T08:27:12;98875.44;;;7.60;74.76
24422;BME280;12600;53.326;-6.298;2022-12-29T08:30:09;98871.91;;;7.60;74.40
24422;BME280;12600;53.326;-6.298;2022-12-29T08:32:59;98861.53;;;7.41;75.14
24422;BME280;12600;53.326;-6.298;2022-12-29T08:35:48;98858.00;;;7.61;74.51
24422;BME280;12600;53.326;-6.298;2022-12-29T08:38:37;98856.94;;;7.53;74.76
24422;BME280;12600;53.326;-6.298;2022-12-29T08:41:26;98861.38;;;7.58;74.86
24422;BME280;12600;53.326;-6.298;2022-12-29T08:44:17;98865.03;;;7.62;74.49
24422;BME280;12600;53.326;-6.298;2022-12-29T08:47:06;98874.19;;;7.57;74.77
24422;BME280;12600;53.326;-6.298;2022-12-29T08:49:56;98883.47;;;7.56;74.80
24422;BME280;12600;53.326;-6.298;2022-12-29T08:52:45;98856.44;;;7.39;75.03
24422;BME280;12600;53.326;-6.298;2022-12-29T08:55:35;98875.25;;;7.44;74.91
24422;BME280;12600;53.326;-6.298;2022-12-29T08:58:24;98887.56;;;7.42;74.64
24422;BME280;12600;53.326;-6.298;2022-12-29T09:01:16;98875.75;;;7.38;74.70
24422;BME280;12600;53.326;-6.298;2022-12-29T09:04:06;98891.81;;;7.31;75.36
24422;BME280;12600;53.326;-6.298;2022-12-29T09:07:05;98887.75;;;7.37;74.82
24422;BME280;12600;53.326;-6.298;2022-12-29T09:09:54;98895.00;;;7.33;75.29
24422;BME280;12600;53.326;-6.298;2022-12-29T09:12:43;98922.44;;;7.40;75.61
24422;BME280;12600;53.326;-6.298;2022-12-29T09:15:32;98914.53;;;7.26;76.35
24422;BME280;12600;53.326;-6.298;2022-12-29T09:18:23;98950.75;;;7.39;75.89
24422;BME280;12600;53.326;-6.298;2022-12-29T09:21:13;98933.22;;;7.27;76.70
24422;BME280;12600;53.326;-6.298;2022-12-29T09:24:02;98943.09;;;7.32;76.36
24422;BME280;12600;53.326;-6.298;2022-12-29T09:26:51;98964.97;;;7.36;76.43
24422;BME280;12600;53.326;-6.298;2022-12-29T09:29:41;98963.66;;;7.42;75.91
24422;BME280;12600;53.326;-6.298;2022-12-29T09:32:30;98956.34;;;7.34;76.03
24422;BME280;12600;53.326;-6.298;2022-12-29T09:35:23;99011.47;;;7.34;75.87
24422;BME280;12600;53.326;-6.298;2022-12-29T09:38:13;98969.75;;;7.39;75.95
24422;BME280;12600;53.326;-6.298;2022-12-29T09:41:11;98955.88;;;7.32;75.81
24422;BME280;12600;53.326;-6.298;2022-12-29T09:44:11;98995.00;;;7.39;75.81
24422;BME280;12600;53.326;-6.298;2022-12-29T09:47:09;98968.09;;;7.46;75.67
24422;BME280;12600;53.326;-6.298;2022-12-29T09:50:04;98949.94;;;7.38;75.93
24422;BME280;12600;53.326;-6.298;2022-12-29T09:53:03;98979.00;;;7.38;76.14
24422;BME280;12600;53.326;-6.298;2022-12-29T09:55:58;99001.22;;;7.40;75.98
24422;BME280;12600;53.326;-6.298;2022-12-29T09:58:54;98984.03;;;7.27;76.54
24422;BME280;12600;53.326;-6.298;2022-12-29T10:01:53;99002.34;;;7.39;75.82
24422;BME280;12600;53.326;-6.298;2022-12-29T10:04:46;99017.66;;;7.43;76.28
24422;BME280;12600;53.326;-6.298;2022-12-29T10:07:42;99018.34;;;7.61;76.56
24422;BME280;12600;53.326;-6.298;2022-12-29T10:10:40;98984.53;;;7.50;76.98
24422;BME280;12600;53.326;-6.298;2022-12-29T10:13:43;99007.03;;;7.59;76.55
24422;BME280;12600;53.326;-6.298;2022-12-29T10:16:44;99019.41;;;7.69;76.33
24422;BME280;12600;53.326;-6.298;2022-12-29T10:19:57;99023.09;;;7.73;76.24
24422;BME280;12600;53.326;-6.298;2022-12-29T10:23:23;99024.34;;;7.75;76.76
24422;BME280;12600;53.326;-6.298;2022-12-29T10:26:19;99015.06;;;7.76;76.78
24422;BME280;12600;53.326;-6.298;2022-12-29T10:29:15;99038.66;;;7.84;77.83
24422;BME280;12600;53.326;-6.298;2022-12-29T10:32:12;99043.81;;;7.86;78.03
24422;BME280;12600;53.326;-6.298;2022-12-29T10:35:09;99048.22;;;7.91;79.04
24422;BME280;12600;53.326;-6.298;2022-12-29T10:38:09;99025.34;;;7.92;78.96
24422;BME280;12600;53.326;-6.298;2022-12-29T10:41:08;99065.06;;;7.84;78.63
24422;BME280;12600;53.326;-6.298;2022-12-29T10:44:02;99073.09;;;7.80;78.83
24422;BME280;12600;53.326;-6.298;2022-12-29T10:46:57;99069.16;;;7.69;78.61
24422;BME280;12600;53.326;-6.298;2022-12-29T10:49:48;99092.97;;;7.72;79.23
24422;BME280;12600;53.326;-6.298;2022-12-29T10:52:38;99105.56;;;7.77;79.37
24422;BME280;12600;53.326;-6.298;2022-12-29T10:55:32;99109.22;;;7.51;80.51
24422;BME280;12600;53.326;-6.298;2022-12-29T10:58:23;99117.66;;;7.58;80.86
24422;BME280;12600;53.326;-6.298;2022-12-29T11:01:15;99127.31;;;7.47;81.55
24422;BME280;12600;53.326;-6.298;2022-12-29T11:04:25;99107.22;;;7.31;82.81
24422;BME280;12600;53.326;-6.298;2022-12-29T11:07:19;99101.75;;;7.40;83.02
24422;BME280;12600;53.326;-6.298;2022-12-29T11:10:21;99097.91;;;7.41;83.32
24422;BME280;12600;53.326;-6.298;2022-12-29T11:13:19;99108.28;;;7.47;83.08
24422;BME280;12600;53.326;-6.298;2022-12-29T11:16:14;99109.22;;;7.51;83.49
24422;BME280;12600;53.326;-6.298;2022-12-29T11:19:21;99104.72;;;7.55;83.69
24422;BME280;12600;53.326;-6.298;2022-12-29T11:22:20;99106.44;;;7.60;83.09
24422;BME280;12600;53.326;-6.298;2022-12-29T11:25:12;99116.19;;;7.61;82.29
24422;BME280;12600;53.326;-6.298;2022-12-29T11:28:15;99115.72;;;7.59;82.06
24422;BME280;12600;53.326;-6.298;2022-12-29T11:31:07;99126.94;;;7.57;81.95
24422;BME280;12600;53.326;-6.298;2022-12-29T11:33:58;99159.72;;;7.52;81.39
24422;BME280;12600;53.326;-6.298;2022-12-29T11:36:48;99139.47;;;7.41;81.63
24422;BME280;12600;53.326;-6.298;2022-12-29T11:39:43;99132.78;;;7.39;81.62
24422;BME280;12600;53.326;-6.298;2022-12-29T11:42:37;99144.47;;;7.31;81.85
24422;BME280;12600;53.326;-6.298;2022-12-29T11:45:31;99150.00;;;7.43;81.34
24422;BME280;12600;53.326;-6.298;2022-12-29T11:48:22;99145.84;;;7.37;81.13
24422;BME280;12600;53.326;-6.298;2022-12-29T11:51:22;99160.09;;;7.34;80.84
24422;BME280;12600;53.326;-6.298;2022-12-29T11:54:18;99149.56;;;7.32;80.86
24422;BME280;12600;53.326;-6.298;2022-12-29T11:57:11;99155.91;;;7.45;80.86
24422;BME280;12600;53.326;-6.298;2022-12-29T12:00:13;99172.94;;;7.71;79.98
24422;BME280;12600;53.326;-6.298;2022-12-29T12:03:07;99173.00;;;8.51;77.83
24422;BME280;12600;53.326;-6.298;2022-12-29T12:06:02;99166.84;;;9.29;75.52
24422;BME280;12600;53.326;-6.298;2022-12-29T12:08:55;99173.41;;;9.86;71.82
24422;BME280;12600;53.326;-6.298;2022-12-29T12:11:47;99171.72;;;10.30;70.03
24422;BME280;12600;53.326;-6.298;2022-12-29T12:14:46;99161.13;;;10.53;68.84
24422;BME280;12600;53.326;-6.298;2022-12-29T12:18:02;99172.31;;;10.76;67.55
24422;BME280;12600;53.326;-6.298;2022-12-29T12:20:56;99189.00;;;10.86;67.62
24422;BME280;12600;53.326;-6.298;2022-12-29T12:24:22;99185.03;;;10.44;68.03
24422;BME280;12600;53.326;-6.298;2022-12-29T12:27:20;99185.38;;;10.05;68.76
24422;BME280;12600;53.326;-6.298;2022-12-29T12:30:16;99199.84;;;9.61;70.08
24422;BME280;12600;53.326;-6.298;2022-12-29T12:33:16;99206.97;;;9.41;70.92
24422;BME280;12600;53.326;-6.298;2022-12-29T12:36:28;99205.88;;;9.21;72.14
24422;BME280;12600;53.326;-6.298;2022-12-29T12:39:27;99196.34;;;9.15;72.23
24422;BME280;12600;53.326;-6.298;2022-12-29T12:42:35;99212.53;;;9.11;73.10
24422;BME280;12600;53.326;-6.298;2022-12-29T12:45:42;99222.78;;;8.93;73.58
24422;BME280;12600;53.326;-6.298;2022-12-29T12:48:53;99228.25;;;8.93;73.90
24422;BME280;12600;53.326;-6.298;2022-12-29T12:52:00;99216.94;;;9.04;74.04
24422;BME280;12600;53.326;-6.298;2022-12-29T12:55:12;99211.50;;;9.04;73.65
24422;BME280;12600;53.326;-6.298;2022-12-29T12:58:13;99218.41;;;9.01;74.11
24422;BME280;12600;53.326;-6.298;2022-12-29T13:01:22;99236.47;;;9.06;73.82
24422;BME280;12600;53.326;-6.298;2022-12-29T13:04:45;99226.78;;;8.96;73.91
24422;BME280;12600;53.326;-6.298;2022-12-29T13:07:48;99236.34;;;8.81;73.97
24422;BME280;12600;53.326;-6.298;2022-12-29T13:10:45;99232.69;;;8.77;73.90
24422;BME280;12600;53.326;-6.298;2022-12-29T13:14:19;99255.63;;;8.76;73.90
24422;BME280;12600;53.326;-6.298;2022-12-29T13:17:17;99273.53;;;8.77;74.21
24422;BME280;12600;53.326;-6.298;2022-12-29T13:20:20;99265.66;;;8.84;74.27
24422;BME280;12600;53.326;-6.298;2022-12-29T13:23:18;99271.81;;;8.93;73.80
24422;BME280;12600;53.326;-6.298;2022-12-29T13:26:18;99276.72;;;8.79;73.46
24422;BME280;12600;53.326;-6.298;2022-12-29T13:29:16;99276.28;;;8.77;73.53
24422;BME280;12600;53.326;-6.298;2022-12-29T13:32:21;99292.72;;;8.60;73.40
24422;BME280;12600;53.326;-6.298;2022-12-29T13:35:36;99290.31;;;8.58;72.92
24422;BME280;12600;53.326;-6.298;2022-12-29T13:38:35;99312.69;;;8.64;72.15
24422;BME280;12600;53.326;-6.298;2022-12-29T13:41:31;99308.03;;;8.64;71.13
24422;BME280;12600;53.326;-6.298;2022-12-29T13:44:25;99315.41;;;8.64;70.80
24422;BME280;12600;53.326;-6.298;2022-12-29T13:47:29;99328.63;;;8.53;69.22
24422;BME280;12600;53.326;-6.298;2022-12-29T13:50:23;99327.16;;;8.56;68.29
24422;BME280;12600;53.326;-6.298;2022-12-29T13:53:24;99325.31;;;8.39;67.56
24422;BME280;12600;53.326;-6.298;2022-12-29T13:56:22;99328.81;;;8.39;67.88
24422;BME280;12600;53.326;-6.298;2022-12-29T13:59:24;99338.25;;;8.33;67.09
24422;BME280;12600;53.326;-6.298;2022-12-29T14:02:26;99333.81;;;8.37;67.52
24422;BME280;12600;53.326;-6.298;2022-12-29T14:05:31;99329.16;;;8.29;67.82
24422;BME280;12600;53.326;-6.298;2022-12-29T14:08:20;99343.44;;;8.35;68.05
24422;BME280;12600;53.326;-6.298;2022-12-29T14:11:13;99348.22;;;8.29;67.75
24422;BME280;12600;53.326;-6.298;2022-12-29T14:14:13;99345.19;;;8.22;68.04
24422;BME280;12600;53.326;-6.298;2022-12-29T14:17:11;99347.25;;;8.25;67.89
24422;BME280;12600;53.326;-6.298;2022-12-29T14:20:04;99339.28;;;8.20;68.20
24422;BME280;12600;53.326;-6.298;2022-12-29T14:22:58;99329.41;;;8.07;68.82
24422;BME280;12600;53.326;-6.298;2022-12-29T14:25:58;99339.44;;;8.15;69.02
24422;BME280;12600;53.326;-6.298;2022-12-29T14:28:49;99346.50;;;8.16;69.24
24422;BME280;12600;53.326;-6.298;2022-12-29T14:31:39;99350.81;;;8.17;69.52
24422;BME280;12600;53.326;-6.298;2022-12-29T14:34:39;99335.97;;;8.06;69.36
24422;BME280;12600;53.326;-6.298;2022-12-29T14:37:30;99349.88;;;8.13;69.35
24422;BME280;12600;53.326;-6.298;2022-12-29T14:40:25;99327.66;;;8.02;69.31
24422;BME280;12600;53.326;-6.298;2022-12-29T14:43:24;99343.59;;;8.21;68.93
24422;BME280;12600;53.326;-6.298;2022-12-29T14:46:14;99343.47;;;8.09;68.86
24422;BME280;12600;53.326;-6.298;2022-12-29T14:49:04;99348.06;;;8.17;68.73
24422;BME280;12600;53.326;-6.298;2022-12-29T14:52:06;99370.53;;;8.05;68.19
24422;BME280;12600;53.326;-6.298;2022-12-29T14:54:57;99365.69;;;8.20;68.54
24422;BME280;12600;53.326;-6.298;2022-12-29T14:57:51;99364.25;;;8.22;67.85
24422;BME280;12600;53.326;-6.298;2022-12-29T15:00:42;99357.22;;;8.21;68.18
24422;BME280;12600;53.326;-6.298;2022-12-29T15:03:38;99359.75;;;8.26;68.11
24422;BME280;12600;53.326;-6.298;2022-12-29T15:06:36;99365.06;;;8.14;68.90
24422;BME280;12600;53.326;-6.298;2022-12-29T15:09:35;99346.97;;;8.09;69.41
24422;BME280;12600;53.326;-6.298;2022-12-29T15:12:35;99362.50;;;8.09;70.35
24422;BME280;12600;53.326;-6.298;2022-12-29T15:15:26;99355.16;;;8.09;70.72
24422;BME280;12600;53.326;-6.298;2022-12-29T15:18:25;99358.69;;;8.01;70.96
24422;BME280;12600;53.326;-6.298;2022-12-29T15:21:16;99370.19;;;8.07;70.93
24422;BME280;12600;53.326;-6.298;2022-12-29T15:24:09;99362.53;;;7.92;71.51
24422;BME280;12600;53.326;-6.298;2022-12-29T15:27:03;99342.88;;;7.95;71.51
24422;BME280;12600;53.326;-6.298;2022-12-29T15:29:58;99366.84;;;8.01;71.77
24422;BME280;12600;53.326;-6.298;2022-12-29T15:32:50;99354.25;;;7.88;72.52
24422;BME280;12600;53.326;-6.298;2022-12-29T15:35:40;99376.63;;;7.94;72.58
24422;BME280;12600;53.326;-6.298;2022-12-29T15:38:30;99383.84;;;7.90;72.87